Time;durP1;ratioP1;P1;durP2;ratioP2;P2;SDS_P1;SDS_P2;PMS_P1;PMS_P2;Temp;Humidity;BMP_temperature;BMP_pressure;BME280_temperature;BME280_humidity;BME280_pressure;Samples;Min_cycle;Max_cycle;Signal;HPM_P1;HPM_P2
2024/04/08 00:01:21;;;;;;;11.23;2.50;;;;;;;17.28;51.97;98103.34;4950829;28;103673;-66
2024/04/08 00:03:47;;;;;;;19.75;2.67;;;;;;;17.11;52.56;98102.31;4941307;28;103061;-66
2024/04/08 00:06:15;;;;;;;8.15;1.95;;;;;;;17.21;52.17;98107.94;4937973;28;102858;-66
2024/04/08 00:08:44;;;;;;;10.30;1.83;;;;;;;16.98;52.94;98100.59;4951076;28;104050;-66
2024/04/08 00:11:10;;;;;;;10.30;1.70;;;;;;;17.12;52.55;98103.94;4941073;28;105283;-66
2024/04/08 00:13:38;;;;;;;13.00;2.17;;;;;;;17.10;52.20;98096.16;4955531;28;102848;-66
2024/04/08 00:16:05;;;;;;;12.70;2.05;;;;;;;17.17;51.98;98104.88;4953243;28;102899;-66
2024/04/08 00:18:31;;;;;;;15.20;2.42;;;;;;;16.79;53.79;98097.09;4940735;28;103384;-66
2024/04/08 00:21:06;;;;;;;11.32;2.72;;;;;;;16.35;54.59;98089.94;4952530;28;106193;-66
2024/04/08 00:23:35;;;;;;;11.30;2.13;;;;;;;16.61;53.65;98090.72;4954963;28;102882;-66
2024/04/08 00:26:05;;;;;;;8.15;2.25;;;;;;;16.84;53.44;98100.72;4970701;28;103418;-66
2024/04/08 00:28:31;;;;;;;11.23;2.53;;;;;;;16.53;55.33;98093.66;4936846;28;103615;-65
2024/04/08 00:31:04;;;;;;;13.55;2.72;;;;;;;16.41;54.28;98102.44;4954102;28;103887;-66
2024/04/08 00:33:33;;;;;;;13.48;2.38;;;;;;;16.54;54.62;98101.47;4937191;28;102783;-65
2024/04/08 00:36:02;;;;;;;10.10;2.20;;;;;;;16.32;54.43;98102.91;4957034;28;102741;-66
2024/04/08 00:38:30;;;;;;;15.38;2.00;;;;;;;16.21;54.78;98101.78;4939602;28;103652;-66
2024/04/08 00:41:02;;;;;;;9.52;2.08;;;;;;;16.56;54.17;98078.00;4936242;28;105376;-65
2024/04/08 00:43:31;;;;;;;9.73;2.00;;;;;;;16.65;54.23;98083.06;4937753;28;103094;-66
2024/04/08 00:45:57;;;;;;;7.78;1.65;;;;;;;16.64;54.45;98090.28;4954877;28;102904;-65
2024/04/08 00:48:25;;;;;;;14.52;2.78;;;;;;;16.60;54.88;98097.09;4953122;28;103519;-64
2024/04/08 00:50:55;;;;;;;16.00;2.58;;;;;;;16.36;55.56;98093.41;4950383;28;103237;-66
2024/04/08 00:53:24;;;;;;;10.15;2.15;;;;;;;16.50;55.55;98088.78;4938811;28;102828;-66
2024/04/08 00:55:52;;;;;;;7.55;1.95;;;;;;;16.54;55.50;98079.28;4956057;28;102742;-66
2024/04/08 00:58:18;;;;;;;11.93;2.10;;;;;;;16.57;56.35;98068.97;4954671;28;103321;-66
2024/04/08 01:00:44;;;;;;;13.18;2.50;;;;;;;16.37;56.70;98061.13;4939882;28;105887;-66
2024/04/08 01:03:12;;;;;;;15.75;2.20;;;;;;;16.33;57.11;98062.63;4950211;28;102939;-65
2024/04/08 01:05:39;;;;;;;16.65;2.58;;;;;;;16.12;57.21;98061.19;4955940;28;102909;-64
2024/04/08 01:08:07;;;;;;;11.90;2.45;;;;;;;16.03;56.90;98076.66;4955048;28;103502;-65
2024/04/08 01:10:33;;;;;;;15.98;2.75;;;;;;;16.18;56.26;98075.50;4953667;28;105592;-64
2024/04/08 01:12:59;;;;;;;15.23;2.95;;;;;;;16.07;56.36;98069.88;4968855;28;102799;-65
2024/04/08 01:15:28;;;;;;;6.00;1.88;;;;;;;16.34;55.70;98072.28;4941763;28;102800;-65
2024/04/08 01:17:55;;;;;;;13.13;1.90;;;;;;;16.37;56.54;98074.50;4966539;28;103484;-66
2024/04/08 01:20:20;;;;;;;6.80;1.70;;;;;;;16.23;56.77;98078.31;4942928;28;103529;-66
2024/04/08 01:22:48;;;;;;;14.85;2.92;;;;;;;16.27;57.31;98068.88;4959686;28;104430;-65
2024/04/08 01:25:14;;;;;;;10.27;2.63;;;;;;;16.00;57.95;98063.75;4956925;28;102865;-65
2024/04/08 01:27:42;;;;;;;13.88;3.25;;;;;;;15.98;58.58;98056.97;4952126;28;103277;-65
2024/04/08 01:30:08;;;;;;;13.20;2.28;;;;;;;15.64;59.93;98046.56;4940053;28;103430;-65
2024/04/08 01:32:34;;;;;;;13.02;2.80;;;;;;;15.46;60.45;98046.47;4940087;28;105888;-65
2024/04/08 01:34:59;;;;;;;12.15;2.47;;;;;;;15.62;58.91;98051.28;4967206;28;102895;-65
2024/04/08 01:37:25;;;;;;;9.20;2.97;;;;;;;15.80;58.24;98057.72;4939856;28;103721;-65
2024/04/08 01:39:53;;;;;;;14.23;2.65;;;;;;;15.88;57.79;98057.50;4947613;28;105383;-65
2024/04/08 01:42:21;;;;;;;8.18;2.53;;;;;;;15.83;57.37;98057.31;4946019;28;102656;-65
2024/04/08 01:44:47;;;;;;;21.25;3.90;;;;;;;15.98;57.34;98057.81;4953579;28;105185;-64
2024/04/08 01:47:13;;;;;;;9.98;2.05;;;;;;;16.02;57.08;98045.66;4952953;28;103299;-65
2024/04/08 01:49:39;;;;;;;11.00;2.33;;;;;;;16.17;56.80;98055.19;4955170;28;103823;-66
2024/04/08 01:52:07;;;;;;;9.35;2.20;;;;;;;16.24;57.06;98054.09;4956823;28;102878;-66
2024/04/08 01:54:37;;;;;;;13.65;3.05;;;;;;;16.22;57.58;98050.81;4966758;28;102863;-65
2024/04/08 01:57:03;;;;;;;11.80;2.60;;;;;;;16.14;57.65;98056.44;4959191;28;107612;-66
2024/04/08 01:59:28;;;;;;;8.75;2.13;;;;;;;16.15;57.39;98038.56;4957028;28;103969;-66
2024/04/08 02:01:54;;;;;;;11.57;2.60;;;;;;;16.06;58.95;98044.19;4959604;28;104080;-66
2024/04/08 02:04:20;;;;;;;14.43;2.65;;;;;;;16.19;57.72;98037.91;4942922;28;102839;-66
2024/04/08 02:06:49;;;;;;;12.43;2.83;;;;;;;16.13;58.72;98027.28;4954178;28;103427;-66
2024/04/08 02:09:16;;;;;;;23.00;4.30;;;;;;;15.96;58.67;98041.19;4955765;28;103384;-66
2024/04/08 02:11:44;;;;;;;23.90;3.75;;;;;;;15.85;56.89;98034.72;4959878;28;103146;-66
2024/04/08 02:14:10;;;;;;;17.80;3.15;;;;;;;15.82;57.17;98048.47;4954255;28;102838;-66
2024/04/08 02:16:36;;;;;;;17.42;3.67;;;;;;;15.71;57.85;98049.19;4939065;28;105041;-65
2024/04/08 02:19:02;;;;;;;18.45;3.17;;;;;;;15.51;59.06;98060.81;4941652;28;103300;-66
2024/04/08 02:21:35;;;;;;;26.25;3.55;;;;;;;15.41;59.40;98061.28;4960334;28;102740;-66
2024/04/08 02:24:00;;;;;;;9.75;2.92;;;;;;;15.80;58.06;98065.72;4959229;28;103029;-66
2024/04/08 02:26:28;;;;;;;11.05;2.88;;;;;;;15.97;57.67;98074.03;4939527;28;103463;-66
2024/04/08 02:29:00;;;;;;;11.35;2.38;;;;;;;16.07;58.22;98080.53;4940515;28;103763;-66
2024/04/08 02:31:28;;;;;;;18.52;3.45;;;;;;;15.86;60.66;98078.25;4958229;28;102766;-66
2024/04/08 02:33:54;;;;;;;13.88;2.95;;;;;;;15.62;61.05;98083.31;4955942;28;102802;-66
2024/04/08 02:36:20;;;;;;;16.88;3.08;;;;;;;15.63;60.96;98079.63;4942562;28;103087;-65
2024/04/08 02:38:46;;;;;;;10.60;2.83;;;;;;;15.66;60.31;98076.50;4956684;28;103287;-66
2024/04/08 02:41:11;;;;;;;9.13;2.45;;;;;;;15.73;59.94;98074.63;4958270;28;102802;-66
2024/04/08 02:43:37;;;;;;;11.70;3.45;;;;;;;15.66;60.60;98076.50;4943453;28;103069;-66
2024/04/08 02:46:05;;;;;;;10.55;3.03;;;;;;;15.67;60.30;98075.47;4960838;28;103255;-66
2024/04/08 02:48:31;;;;;;;11.18;2.45;;;;;;;15.63;60.57;98071.63;4958782;28;103276;-66
2024/04/08 02:50:59;;;;;;;15.00;2.78;;;;;;;15.69;59.65;98069.91;4954623;28;102803;-66
2024/04/08 02:53:25;;;;;;;6.20;2.45;;;;;;;15.77;58.93;98076.84;4955868;28;102965;-66
2024/04/08 02:56:00;;;;;;;5.57;1.80;;;;;;;15.72;58.65;98075.66;4943002;28;104528;-66
2024/04/08 02:58:28;;;;;;;11.25;3.28;;;;;;;15.79;58.68;98066.78;4970833;28;103945;-66
2024/04/08 03:00:56;;;;;;;12.48;2.58;;;;;;;15.59;59.59;98065.06;4954510;28;102881;-66
2024/04/08 03:03:22;;;;;;;10.27;2.85;;;;;;;15.50;59.80;98069.03;4957218;28;102802;-66
2024/04/08 03:05:47;;;;;;;11.02;3.30;;;;;;;15.29;60.70;98068.34;4969994;28;103374;-66
2024/04/08 03:08:13;;;;;;;10.63;2.58;;;;;;;15.16;60.97;98079.88;4939798;28;103796;-66
2024/04/08 03:10:39;;;;;;;14.68;3.45;;;;;;;15.03;61.40;98070.09;4951077;28;102770;-66
2024/04/08 03:13:07;;;;;;;9.35;2.47;;;;;;;15.02;61.41;98065.78;4956878;28;104816;-66
2024/04/08 03:15:35;;;;;;;8.98;2.25;;;;;;;15.14;60.26;98067.78;4955127;28;103268;-65
2024/04/08 03:18:01;;;;;;;7.60;2.40;;;;;;;15.20;60.35;98072.28;4945998;28;103394;-66
2024/04/08 03:20:26;;;;;;;13.25;2.20;;;;;;;15.24;60.78;98081.50;4950776;28;102921;-66
2024/04/08 03:22:52;;;;;;;11.70;2.88;;;;;;;15.16;61.34;98079.09;4942338;28;102803;-66
2024/04/08 03:25:18;;;;;;;11.35;2.55;;;;;;;14.95;62.54;98078.34;4959551;28;103089;-66
2024/04/08 03:27:45;;;;;;;14.02;3.20;;;;;;;14.58;64.07;98084.19;4940901;28;103432;-66
2024/04/08 03:30:11;;;;;;;18.20;3.22;;;;;;;14.30;65.50;98084.44;4954152;28;102812;-65
2024/04/08 03:32:37;;;;;;;15.32;3.78;;;;;;;14.52;64.60;98084.19;4966664;28;102853;-65
2024/04/08 03:35:04;;;;;;;13.15;3.00;;;;;;;14.12;66.17;98073.59;4938842;28;103231;-66
2024/04/08 03:37:32;;;;;;;12.38;2.90;;;;;;;14.43;63.98;98091.59;4940431;28;103107;-65
2024/04/08 03:39:58;;;;;;;12.80;2.75;;;;;;;14.67;62.95;98095.47;4938229;28;104248;-65
2024/04/08 03:42:24;;;;;;;7.60;2.20;;;;;;;14.63;62.86;98102.19;4958103;28;102838;-65
2024/04/08 03:44:52;;;;;;;18.70;2.95;;;;;;;14.50;63.61;98094.22;4959898;28;103312;-66
2024/04/08 03:47:23;;;;;;;10.18;2.50;;;;;;;14.52;63.37;98105.50;4931594;28;103325;-66
2024/04/08 03:49:52;;;;;;;19.95;3.88;;;;;;;14.56;63.23;98106.72;4953848;28;102801;-66
2024/04/08 03:52:20;;;;;;;14.20;3.08;;;;;;;14.06;64.86;98107.19;4952658;28;102784;-65
2024/04/08 03:54:48;;;;;;;10.65;2.45;;;;;;;14.29;63.26;98105.94;4947913;28;103681;-66
2024/04/08 03:57:14;;;;;;;7.82;2.30;;;;;;;14.47;62.47;98107.97;4950391;28;103758;-67
2024/04/08 03:59:46;;;;;;;7.43;2.65;;;;;;;14.53;62.23;98107.16;4951689;28;102698;-66
2024/04/08 04:02:14;;;;;;;6.88;2.20;;;;;;;14.40;63.33;98108.81;4956333;28;102825;-66
2024/04/08 04:04:40;;;;;;;17.85;4.05;;;;;;;14.00;65.92;98106.16;4948945;28;105727;-67
2024/04/08 04:07:06;;;;;;;13.48;2.97;;;;;;;13.63;67.91;98111.03;4949043;28;103323;-66
2024/04/08 04:09:31;;;;;;;7.97;2.60;;;;;;;13.83;66.60;98112.91;4951816;28;102736;-66
2024/04/08 04:11:57;;;;;;;16.38;3.00;;;;;;;14.06;65.31;98108.00;4950999;28;103448;-67
2024/04/08 04:14:23;;;;;;;13.98;3.13;;;;;;;13.92;66.22;98111.69;4951595;28;103328;-67
2024/04/08 04:16:51;;;;;;;14.20;3.40;;;;;;;13.87;65.88;98109.66;4939934;28;103554;-66
2024/04/08 04:19:17;;;;;;;13.88;3.17;;;;;;;13.72;66.35;98112.50;4935965;28;103285;-66
2024/04/08 04:21:43;;;;;;;11.95;2.78;;;;;;;13.89;65.02;98112.09;4949767;28;102768;-66
2024/04/08 04:24:09;;;;;;;14.20;3.58;;;;;;;13.56;67.10;98110.22;4953067;28;103299;-66
2024/04/08 04:26:34;;;;;;;10.88;3.08;;;;;;;13.43;67.30;98114.47;4963318;28;103156;-66
2024/04/08 04:29:02;;;;;;;16.92;4.28;;;;;;;13.19;67.14;98115.00;4936002;28;102714;-66
2024/04/08 04:31:41;;;;;;;16.27;2.95;;;;;;;13.42;66.82;98118.16;4952283;28;104091;-66
2024/04/08 04:34:09;;;;;;;13.43;3.00;;;;;;;13.55;66.22;98106.72;4948714;28;108300;-66
2024/04/08 04:36:35;;;;;;;11.32;3.33;;;;;;;13.50;66.20;98108.38;4933080;28;103429;-66
2024/04/08 04:39:06;;;;;;;16.13;3.10;;;;;;;13.69;64.97;98109.41;4950624;28;102964;-66
2024/04/08 04:41:34;;;;;;;12.88;2.67;;;;;;;13.56;66.01;98115.56;4935429;28;102848;-66
2024/04/08 04:44:02;;;;;;;20.17;4.13;;;;;;;13.51;66.32;98120.66;4950229;28;108293;-66
2024/04/08 04:46:32;;;;;;;12.32;2.53;;;;;;;13.51;66.04;98110.00;4968508;28;103742;-66
2024/04/08 04:48:58;;;;;;;16.10;2.50;;;;;;;13.67;65.13;98114.94;4949798;28;102820;-66
2024/04/08 04:51:26;;;;;;;10.85;3.30;;;;;;;13.70;65.03;98103.91;4953475;28;102712;-66
2024/04/08 04:53:55;;;;;;;19.15;4.00;;;;;;;12.97;68.38;98107.16;4947887;28;104010;-66
2024/04/08 04:56:26;;;;;;;11.85;3.17;;;;;;;13.10;67.79;98109.84;4941258;28;104141;-66
2024/04/08 04:58:52;;;;;;;14.32;3.38;;;;;;;13.18;67.79;98110.69;4954347;28;102703;-66
2024/04/08 05:01:21;;;;;;;22.45;4.10;;;;;;;13.35;66.78;98117.31;4971625;28;103240;-67
2024/04/08 05:03:47;;;;;;;9.05;2.80;;;;;;;13.55;65.51;98112.06;4932503;28;103386;-66
2024/04/08 05:06:14;;;;;;;20.38;3.47;;;;;;;13.46;66.84;98112.47;4942436;28;104179;-62
2024/04/08 05:08:43;;;;;;;15.00;2.85;;;;;;;13.23;67.38;98121.53;4940878;28;102774;-66
2024/04/08 05:11:15;;;;;;;13.48;3.20;;;;;;;13.17;68.06;98130.34;4939069;28;104284;-67
2024/04/08 05:13:41;;;;;;;17.88;3.30;;;;;;;13.30;66.91;98133.03;4945111;28;103305;-66
2024/04/08 05:16:07;;;;;;;7.53;2.40;;;;;;;13.57;65.40;98138.44;4947561;28;104985;-62
2024/04/08 05:18:35;;;;;;;13.27;2.78;;;;;;;13.74;64.47;98141.56;4940315;28;102709;-62
2024/04/08 05:21:04;;;;;;;12.55;2.35;;;;;;;13.83;64.94;98142.19;4953212;28;102785;-62
2024/04/08 05:23:31;;;;;;;10.57;2.60;;;;;;;13.87;64.77;98151.41;4937508;28;103521;-62
2024/04/08 05:25:56;;;;;;;11.68;2.95;;;;;;;13.81;65.23;98146.88;4942590;28;105376;-67
2024/04/08 05:28:25;;;;;;;11.70;2.90;;;;;;;13.83;65.49;98150.19;4947800;28;104547;-67
2024/04/08 05:30:53;;;;;;;16.23;3.35;;;;;;;13.75;66.17;98149.38;4937297;28;104621;-67
2024/04/08 05:33:20;;;;;;;13.40;2.97;;;;;;;13.69;66.26;98152.81;4951596;28;103550;-67
2024/04/08 05:35:46;;;;;;;10.18;3.05;;;;;;;13.82;65.91;98159.19;4948659;28;105459;-66
2024/04/08 05:38:13;;;;;;;25.38;3.95;;;;;;;13.35;68.50;98159.03;4953469;28;102810;-67
2024/04/08 05:40:40;;;;;;;17.67;3.45;;;;;;;13.10;68.43;98151.59;4950395;28;102972;-67
2024/04/08 05:43:15;;;;;;;20.48;3.45;;;;;;;13.22;67.50;98151.84;4953822;28;104901;-67
2024/04/08 05:45:42;;;;;;;19.60;3.75;;;;;;;13.67;65.91;98146.88;4950921;28;103187;-67
2024/04/08 05:48:08;;;;;;;17.17;4.30;;;;;;;13.77;65.50;98141.97;4950772;28;103052;-67
2024/04/08 05:50:36;;;;;;;18.58;4.35;;;;;;;14.06;63.76;98141.81;4954497;28;103011;-67
2024/04/08 05:53:01;;;;;;;13.35;3.17;;;;;;;14.19;63.42;98149.00;4952523;28;103206;-69
2024/04/08 05:55:31;;;;;;;23.48;3.97;;;;;;;14.16;64.06;98141.41;4954516;28;103589;-69
2024/04/08 05:57:57;;;;;;;16.65;3.10;;;;;;;14.44;63.20;98130.53;4971917;28;103271;-68
2024/04/08 06:00:23;;;;;;;27.10;4.82;;;;;;;14.24;64.24;98131.38;4956235;28;103047;-69
2024/04/08 06:02:54;;;;;;;19.48;3.22;;;;;;;14.51;63.64;98119.84;4952143;28;105726;-69
2024/04/08 06:05:22;;;;;;;24.58;3.67;;;;;;;14.42;63.92;98121.91;4946874;28;103478;-68
2024/04/08 06:07:48;;;;;;;27.88;4.00;;;;;;;14.24;65.38;98119.88;4954673;28;102794;-69
2024/04/08 06:10:18;;;;;;;20.90;4.32;;;;;;;14.33;65.17;98129.31;4967239;28;103743;-69
2024/04/08 06:12:44;;;;;;;16.40;3.50;;;;;;;14.39;65.16;98127.66;4951950;28;103387;-68
2024/04/08 06:15:12;;;;;;;24.52;3.88;;;;;;;14.55;64.26;98123.75;4953120;28;103251;-69
2024/04/08 06:17:38;;;;;;;12.93;2.92;;;;;;;14.84;63.01;98124.31;4954871;28;104045;-68
2024/04/08 06:20:06;;;;;;;14.90;3.15;;;;;;;15.10;62.16;98128.72;4932668;28;102834;-69
2024/04/08 06:22:38;;;;;;;18.92;4.20;;;;;;;15.04;61.57;98135.75;4954950;28;103274;-68
2024/04/08 06:25:06;;;;;;;17.83;3.45;;;;;;;15.04;61.27;98140.25;4939520;28;105359;-68
2024/04/08 06:27:37;;;;;;;10.48;3.30;;;;;;;15.34;60.95;98156.56;4960374;28;103270;-69
2024/04/08 06:30:03;;;;;;;12.35;3.30;;;;;;;15.44;61.02;98139.28;4968024;28;102790;-69
2024/04/08 06:32:31;;;;;;;19.60;4.30;;;;;;;15.55;60.75;98135.91;4954389;28;103334;-69
2024/04/08 06:34:58;;;;;;;13.07;3.22;;;;;;;15.69;60.22;98137.47;4942669;28;107999;-69
2024/04/08 06:37:24;;;;;;;13.82;3.03;;;;;;;15.91;59.77;98140.63;4943078;28;102869;-69
2024/04/08 06:39:49;;;;;;;23.35;3.88;;;;;;;16.08;59.49;98137.44;4953608;28;106110;-69
2024/04/08 06:42:19;;;;;;;20.02;4.28;;;;;;;16.18;59.43;98134.28;4942358;28;104617;-69
2024/04/08 06:44:51;;;;;;;24.60;4.50;;;;;;;16.07;60.55;98128.63;4942348;28;105339;-69
2024/04/08 06:47:17;;;;;;;10.13;3.55;;;;;;;16.34;59.71;98124.91;4958685;28;102837;-70
2024/04/08 06:49:46;;;;;;;14.93;3.13;;;;;;;16.36;59.26;98130.84;4939338;28;103189;-68
2024/04/08 06:52:12;;;;;;;19.80;4.00;;;;;;;16.60;59.11;98142.56;4958480;28;105833;-69
2024/04/08 06:54:41;;;;;;;14.32;3.63;;;;;;;16.55;59.12;98150.41;4957341;28;106432;-69
2024/04/08 06:57:09;;;;;;;24.55;4.40;;;;;;;16.34;59.05;98139.06;4930047;28;102824;-69
2024/04/08 06:59:40;;;;;;;15.50;3.83;;;;;;;16.60;58.53;98139.03;4935534;28;102849;-69
2024/04/08 07:02:06;;;;;;;16.00;3.40;;;;;;;16.73;57.98;98136.25;4943665;28;102803;-69
2024/04/08 07:04:32;;;;;;;20.35;3.97;;;;;;;16.69;58.23;98141.22;4943052;28;103250;-69
2024/04/08 07:06:59;;;;;;;25.05;4.50;;;;;;;16.68;57.16;98141.44;4958092;28;103369;-69
2024/04/08 07:09:41;;;;;;;12.35;3.15;;;;;;;17.18;56.63;98132.47;4955799;28;102822;-70
2024/04/08 07:12:21;;;;;;;17.85;3.55;;;;;;;17.33;56.43;98132.06;4932048;28;108129;-69
2024/04/08 07:14:51;;;;;;;19.60;4.30;;;;;;;17.43;56.67;98128.88;4941515;28;103230;-69
2024/04/08 07:17:23;;;;;;;24.73;4.57;;;;;;;17.60;54.83;98119.16;4947546;28;104470;-69
2024/04/08 07:19:49;;;;;;;15.10;4.20;;;;;;;17.82;55.05;98115.97;4943482;28;103315;-69
2024/04/08 07:22:17;;;;;;;20.25;4.18;;;;;;;17.86;54.98;98107.22;4961310;28;103345;-68
2024/04/08 07:24:43;;;;;;;15.70;4.10;;;;;;;18.22;54.66;98109.97;4955299;28;103436;-68
2024/04/08 07:27:09;;;;;;;21.52;5.10;;;;;;;17.87;54.86;98113.41;4939885;28;102835;-69
2024/04/08 07:29:40;;;;;;;22.63;3.97;;;;;;;17.88;53.54;98107.00;4942800;28;102904;-64
2024/04/08 07:32:08;;;;;;;16.30;3.65;;;;;;;18.31;53.62;98097.06;4938580;28;103558;-69
2024/04/08 07:34:34;;;;;;;19.08;3.67;;;;;;;18.53;52.91;98097.28;4942885;28;103470;-68
2024/04/08 07:36:59;;;;;;;22.58;3.75;;;;;;;18.93;52.43;98096.56;4974842;28;104434;-68
2024/04/08 07:39:31;;;;;;;18.33;3.78;;;;;;;19.09;51.68;98103.03;4940364;28;104510;-69
2024/04/08 07:41:57;;;;;;;15.20;3.85;;;;;;;19.44;51.68;98095.91;4974293;28;104645;-69
2024/04/08 07:44:24;;;;;;;8.88;2.72;;;;;;;19.72;50.43;98089.69;4939146;28;103397;-68
2024/04/08 07:46:57;;;;;;;20.20;3.00;;;;;;;19.88;49.81;98094.28;4949380;28;102955;-68
2024/04/08 07:49:25;;;;;;;16.00;3.35;;;;;;;20.14;49.45;98086.63;4955299;28;102763;-67
2024/04/08 07:51:51;;;;;;;24.63;3.78;;;;;;;20.32;48.58;98087.44;4954534;28;106861;-67
2024/04/08 07:54:20;;;;;;;14.07;3.33;;;;;;;20.35;48.27;98093.13;4940363;28;106483;-67
2024/04/08 07:56:53;;;;;;;31.08;3.75;;;;;;;20.62;48.02;98091.63;4944510;28;102875;-67
2024/04/08 07:59:21;;;;;;;13.63;3.42;;;;;;;20.87;47.81;98092.00;4939564;28;103426;-68
2024/04/08 08:01:50;;;;;;;17.95;3.70;;;;;;;20.89;46.38;98090.94;4944991;28;103887;-68
2024/04/08 08:04:21;;;;;;;13.70;3.20;;;;;;;21.20;47.52;98086.72;4961454;28;104085;-67
2024/04/08 08:06:48;;;;;;;16.98;3.53;;;;;;;21.53;46.41;98095.69;4942924;28;103959;-68
2024/04/08 08:09:13;;;;;;;22.52;3.60;;;;;;;21.36;44.77;98088.50;4948702;28;102890;-68
2024/04/08 08:11:44;;;;;;;20.65;3.78;;;;;;;21.75;44.18;98095.66;4942099;28;103347;-68
2024/04/08 08:14:10;;;;;;;18.60;4.40;;;;;;;21.96;42.88;98088.53;4936918;28;103067;-67
2024/04/08 08:16:36;;;;;;;19.77;3.30;;;;;;;22.26;43.04;98081.75;4936741;28;102981;-67
2024/04/08 08:19:02;;;;;;;21.17;3.65;;;;;;;21.96;41.73;98085.06;4947071;28;102786;-68
2024/04/08 08:21:30;;;;;;;22.85;3.53;;;;;;;22.57;42.01;98081.16;4954892;28;103746;-67
2024/04/08 08:24:01;;;;;;;17.63;3.50;;;;;;;22.76;40.97;98092.34;4936014;28;103253;-67
2024/04/08 08:26:32;;;;;;;15.88;4.15;;;;;;;22.88;41.96;98084.81;4949985;28;103164;-68
2024/04/08 08:29:00;;;;;;;14.68;3.47;;;;;;;23.36;40.65;98082.03;4951279;28;103139;-68
2024/04/08 08:31:32;;;;;;;17.45;3.75;;;;;;;23.24;41.06;98079.59;4922375;28;111195;-68
2024/04/08 08:33:58;;;;;;;18.55;3.80;;;;;;;23.55;40.32;98082.34;4947843;28;107982;-68
2024/04/08 08:36:27;;;;;;;15.07;2.67;;;;;;;24.08;40.19;98078.59;4950428;28;102959;-68
2024/04/08 08:38:52;;;;;;;17.92;3.42;;;;;;;23.91;39.74;98081.56;4943638;28;102940;-68
2024/04/08 08:41:22;;;;;;;13.02;3.67;;;;;;;24.30;39.15;98079.13;4936628;28;105331;-68
2024/04/08 08:43:57;;;;;;;21.40;4.70;;;;;;;24.58;37.78;98079.59;4948020;28;103163;-68
2024/04/08 08:46:25;;;;;;;15.02;5.60;;;;;;;24.87;38.17;98081.69;4930417;28;103251;-68
2024/04/08 08:48:53;;;;;;;20.13;4.15;;;;;;;24.80;37.22;98076.59;4941278;28;103115;-68
2024/04/08 08:51:24;;;;;;;18.58;3.17;;;;;;;24.53;36.15;98071.50;4966314;28;103278;-68
2024/04/08 08:53:53;;;;;;;29.30;3.45;;;;;;;24.72;36.23;98079.03;4948830;28;103220;-68
2024/04/08 08:56:30;;;;;;;17.33;3.08;;;;;;;25.13;36.73;98062.63;4947544;28;103174;-68
2024/04/08 08:59:02;;;;;;;22.80;2.70;;;;;;;25.25;35.25;98059.59;4946583;28;103287;-68
2024/04/08 09:01:30;;;;;;;14.70;2.88;;;;;;;25.27;35.63;98058.22;4951181;28;103406;-69
2024/04/08 09:04:04;;;;;;;9.80;2.20;;;;;;;25.72;35.47;98049.28;4946705;28;108198;-65
2024/04/08 09:06:30;;;;;;;17.67;3.70;;;;;;;25.65;36.30;98047.69;4928970;28;103015;-66
2024/04/08 09:08:56;;;;;;;18.70;3.97;;;;;;;25.80;36.05;98048.66;4941632;28;103022;-66
2024/04/08 09:11:22;;;;;;;13.30;3.47;;;;;;;25.72;34.72;98046.56;4936058;28;103606;-66
2024/04/08 09:13:49;;;;;;;15.50;2.75;;;;;;;26.16;35.80;98040.19;4949503;28;103914;-66
2024/04/08 09:16:26;;;;;;;21.33;3.40;;;;;;;26.07;33.42;98050.88;4947684;28;103986;-66
2024/04/08 09:18:53;;;;;;;28.00;3.13;;;;;;;26.33;33.72;98049.81;4930748;28;103296;-66
2024/04/08 09:21:19;;;;;;;21.45;3.10;;;;;;;26.26;34.54;98045.53;4950898;28;103437;-66
2024/04/08 09:23:50;;;;;;;12.38;2.83;;;;;;;25.86;34.72;98052.94;4938364;28;103343;-66
2024/04/08 09:26:21;;;;;;;23.05;2.80;;;;;;;26.59;33.91;98053.84;4943501;28;102773;-66
2024/04/08 09:28:50;;;;;;;19.33;3.25;;;;;;;26.83;34.00;98049.53;4927215;28;103467;-66
2024/04/08 09:31:18;;;;;;;14.52;2.88;;;;;;;26.97;32.76;98043.13;4941822;28;105721;-66
2024/04/08 09:33:44;;;;;;;15.20;3.28;;;;;;;26.89;35.05;98045.69;4945838;28;103229;-67
2024/04/08 09:36:10;;;;;;;10.50;2.65;;;;;;;26.75;33.24;98037.41;4944166;28;102860;-66
2024/04/08 09:38:40;;;;;;;15.35;2.40;;;;;;;27.32;31.40;98028.53;4959623;28;103447;-66
2024/04/08 09:41:12;;;;;;;21.33;3.37;;;;;;;27.00;30.90;98030.03;4949503;28;103295;-66
2024/04/08 09:43:42;;;;;;;21.88;2.60;;;;;;;27.19;30.86;98035.50;4901058;28;109571;-67
2024/04/08 09:46:10;;;;;;;22.95;3.22;;;;;;;27.29;31.33;98032.63;4949438;28;102834;-67
2024/04/08 09:48:38;;;;;;;18.02;2.50;;;;;;;27.82;30.65;98028.03;4944116;28;103208;-67
2024/04/08 09:51:06;;;;;;;23.25;2.88;;;;;;;27.43;29.53;98021.84;4948731;28;103607;-67
2024/04/08 09:53:33;;;;;;;16.77;2.83;;;;;;;27.40;27.49;98022.44;4949552;28;103450;-67
2024/04/08 09:56:04;;;;;;;21.77;2.72;;;;;;;27.32;26.63;98023.09;4949662;28;103390;-67
2024/04/08 09:58:39;;;;;;;11.65;2.88;;;;;;;27.82;27.84;98023.38;4953064;28;102799;-67
2024/04/08 10:01:05;;;;;;;14.50;2.40;;;;;;;27.45;27.82;98022.38;4952177;28;108216;-67
2024/04/08 10:03:51;;;;;;;17.00;3.08;;;;;;;27.76;27.20;98013.69;4945937;28;105162;-67
2024/04/08 10:06:21;;;;;;;12.38;2.33;;;;;;;28.13;27.39;98012.00;4946214;28;103008;-67
2024/04/08 10:08:48;;;;;;;19.65;2.70;;;;;;;28.67;28.59;98011.53;4943143;28;102892;-67
2024/04/08 10:11:17;;;;;;;15.43;2.33;;;;;;;28.53;28.97;98008.78;4950907;28;103393;-67
2024/04/08 10:13:50;;;;;;;13.98;2.13;;;;;;;28.31;28.32;98006.75;4951903;28;103251;-67
2024/04/08 10:16:20;;;;;;;12.13;2.13;;;;;;;28.31;28.16;98007.59;4950238;28;103099;-67
2024/04/08 10:18:55;;;;;;;16.08;2.85;;;;;;;28.38;26.40;98007.19;4955413;28;104462;-67
2024/04/08 10:21:25;;;;;;;8.50;2.08;;;;;;;28.79;26.55;98011.81;4952100;28;103427;-67
2024/04/08 10:23:54;;;;;;;12.05;2.17;;;;;;;28.75;27.06;98008.88;4970015;28;103883;-68
2024/04/08 10:26:26;;;;;;;16.20;2.30;;;;;;;28.56;26.80;98006.28;4950802;28;103242;-69
2024/04/08 10:28:52;;;;;;;16.15;2.55;;;;;;;28.51;25.91;98006.38;4931926;28;102927;-68
2024/04/08 10:31:27;;;;;;;11.23;2.67;;;;;;;28.71;25.20;98005.16;4947944;28;103717;-68
2024/04/08 10:33:52;;;;;;;8.80;2.05;;;;;;;29.02;24.82;97992.78;4952196;28;105186;-69
2024/04/08 10:36:19;;;;;;;12.32;2.28;;;;;;;28.86;24.52;98001.31;4952320;28;102847;-69
2024/04/08 10:38:45;;;;;;;15.38;2.53;;;;;;;28.12;24.81;98003.00;4928246;28;103129;-67
2024/04/08 10:41:12;;;;;;;13.60;2.33;;;;;;;27.76;24.25;98000.09;4933413;28;103324;-68
2024/04/08 10:43:38;;;;;;;16.10;2.30;;;;;;;28.37;24.94;98000.13;4949953;28;104130;-68
2024/04/08 10:46:08;;;;;;;10.27;2.33;;;;;;;28.86;24.89;97990.41;4965515;28;102750;-67
2024/04/08 10:48:37;;;;;;;12.98;1.98;;;;;;;28.62;24.35;97987.88;4944797;28;102924;-67
2024/04/08 10:51:03;;;;;;;12.10;2.20;;;;;;;29.18;24.52;97980.44;4947791;28;103306;-67
2024/04/08 10:53:29;;;;;;;15.32;2.47;;;;;;;28.69;24.34;97982.88;4937110;28;103440;-67
2024/04/08 10:55:54;;;;;;;16.38;3.35;;;;;;;29.23;24.24;97972.13;4921111;28;103494;-67
2024/04/08 10:58:23;;;;;;;12.65;2.25;;;;;;;29.28;23.56;97974.78;4924179;28;103119;-67
2024/04/08 11:00:48;;;;;;;15.35;2.55;;;;;;;29.51;23.79;97977.50;4918080;28;106107;-67
2024/04/08 11:03:14;;;;;;;14.27;2.47;;;;;;;29.68;23.45;97976.78;4945881;28;103457;-68
2024/04/08 11:05:40;;;;;;;21.13;2.83;;;;;;;29.37;23.64;97972.13;4960549;28;104450;-68
2024/04/08 11:08:08;;;;;;;15.15;2.47;;;;;;;29.56;22.98;97963.72;4948500;28;103339;-68
2024/04/08 11:10:42;;;;;;;14.68;2.70;;;;;;;29.66;20.63;97956.41;4942834;28;105627;-68
2024/04/08 11:13:09;;;;;;;13.90;2.25;;;;;;;29.22;21.94;97954.16;4942014;28;103368;-68
2024/04/08 11:15:35;;;;;;;12.18;2.83;;;;;;;29.43;25.17;97950.97;4947265;28;102784;-68
2024/04/08 11:18:01;;;;;;;17.40;2.38;;;;;;;30.03;23.56;97960.63;4934693;28;103266;-68
2024/04/08 11:20:30;;;;;;;9.75;2.35;;;;;;;29.86;22.39;97961.31;4947043;28;103356;-68
2024/04/08 11:23:01;;;;;;;14.90;1.80;;;;;;;30.05;22.72;97963.03;4948905;28;103917;-68